NIEUW!!! Volg onze weer- en natuurfoto's op Instagram @ weerstationmaaseik.be

WS Maaseik 1 Meer informatie WS Maaseik 1


WS Maaseik 2 Meer informatie WS Maaseik 2


Regen radar Meer informatie rain snow radar


Bezoek onze andere website:

Vorige versie
weerstation Maaseik


Bezoek ook eens deze sites:

Weerstation Geleen

Weerstation Luyksgestel



Het weer levert geen direct gevaar op.    Er zijn geen waarschuwingen afgegeven.

METAR rapporten vliegvelden

   
EBBR - Brussels International Airport, Belgium
Afstand tot: W 14 km
Gewijzigd: 25-08-2019 12:20
Helder  
Helder  
   Wind: varieert 5.6 km/h
Wind: varieert 5.6 km/h
Temperatuur: 28°C
Gevoelstemperatuur: 28°C
Dauwpunt: 14°C
Vochtigheid: 42%
Barometer: 1019 hPa
Zicht: meer dan 10 km
Bewolking: Helder ft
EBBR 251020Z VRB03KT CAVOK 28/14 Q1019 NOSIG
EBBE - Beauvechain (Bevekom), Belgium
Afstand tot: ZZO 17 km
Gewijzigd: 25-08-2019 11:55
Helder  
Helder  
   Wind: varieert 1.9 km/h
Wind: varieert 1.9 km/h
Temperatuur: 29°C
Gevoelstemperatuur: 28°C
Dauwpunt: 14°C
Vochtigheid: 40%
Barometer: 1019 hPa
Bewolking: Clear
Zicht: meer dan 10 km
Bewolking: Helder ft
EBBE 250955Z AUTO VRB01KT 9999 NCD 29/14 Q1019 BLU
EBDT - Schaffen, Belgium
Afstand tot: ONO 29 km
Gewijzigd: 25-08-2019 11:55
Helder  
Helder  
   Wind: varieert 3.7 km/h
Wind: varieert 3.7 km/h
Temperatuur: 27°C
Gevoelstemperatuur: 27°C
Dauwpunt: 15°C
Vochtigheid: 48%
Barometer: 1019 hPa
Bewolking: Clear
Zicht: meer dan 10 km
Bewolking: Helder ft
EBDT 250955Z AUTO VRB02KT 9999 NCD 27/15 Q1019 BLU
EBAW - Antwerp/Deurne, Belgium
Afstand tot: NNW 38 km
Gewijzigd: 25-08-2019 12:20
Helder  
Helder  
   Wind: Oosten 7.4 km/h
Wind: Oosten 7.4 km/h
Temperatuur: 29°C
Gevoelstemperatuur: 28°C
Dauwpunt: 14°C
Vochtigheid: 40%
Zicht: meer dan 10 km
Bewolking: Helder ft
EBAW 251020Z 10004KT 060V140 CAVOK 29/14 Q101
EBCI - Charleroi/Gosselies, Belgium
Afstand tot: ZZW 51 km
Gewijzigd: 25-08-2019 12:20
Helder  
Helder  
   Wind: OZO 5.6 km/h
Wind: OZO 5.6 km/h
Temperatuur: 29°C
Dauwpunt: 13°C
Vochtigheid: 37%
Barometer: 1020 hPa
Zicht: meer dan 10 km
Bewolking: Helder ft
EBCI 251020Z 12003KT 030V190 CAVOK 29/13 Q1020 NOSIG
EBLG - Bierset/Liege, Belgium
Afstand tot: OZO 60 km
Gewijzigd: 25-08-2019 12:20
Helder  
Helder  
   Wind: varieert 3.7 km/h
Wind: varieert 3.7 km/h
Temperatuur: 27°C
Gevoelstemperatuur: 27°C
Dauwpunt: 14°C
Vochtigheid: 45%
Barometer: 1020 hPa
Zicht: meer dan 10 km
Bewolking: Helder ft
EBLG 251020Z VRB02KT CAVOK 27/14 Q1020 NOSIG

Script ontwikkeld door  Saratoga-weather.org Aangepast voor de template door  Weerstation Leuven

U vindt ons ook hier:

Het Weer Aktueel

Weather Underground

AWEKAS